createdAt,value
2019-02-25T00:00:49.330Z,4.82
2019-02-25T00:01:49.457Z,4.83
2019-02-25T00:02:49.596Z,4.60
2019-02-25T00:03:49.731Z,4.67
2019-02-25T00:04:49.859Z,4.60
2019-02-25T00:05:49.977Z,4.60
2019-02-25T00:06:50.099Z,4.71
2019-02-25T00:07:50.222Z,4.75
2019-02-25T00:08:50.346Z,4.83
2019-02-25T00:09:50.464Z,4.88
2019-02-25T00:10:50.591Z,4.97
2019-02-25T00:11:50.721Z,5.04
2019-02-25T00:12:50.849Z,5.04
2019-02-25T00:13:50.986Z,5.09
2019-02-25T00:14:51.101Z,5.12
2019-02-25T00:15:51.225Z,5.16
2019-02-25T00:16:51.361Z,5.24
2019-02-25T00:17:51.486Z,5.21
2019-02-25T00:18:51.615Z,5.11
2019-02-25T00:19:51.760Z,5.22
2019-02-25T00:20:51.874Z,5.30
2019-02-25T00:21:51.999Z,5.21
2019-02-25T00:22:52.121Z,5.15
2019-02-25T00:23:52.257Z,5.19
2019-02-25T00:24:52.393Z,5.24
2019-02-25T00:25:52.523Z,5.24
2019-02-25T00:26:52.647Z,5.27
2019-02-25T00:27:52.775Z,5.21
2019-02-25T00:28:52.932Z,5.19
2019-02-25T00:29:53.056Z,5.25
2019-02-25T00:30:53.173Z,5.24
2019-02-25T00:31:53.299Z,5.24
2019-02-25T00:32:53.427Z,5.22
2019-02-25T00:33:53.542Z,5.24
2019-02-25T00:34:53.667Z,5.22
2019-02-25T00:35:53.803Z,5.29
2019-02-25T00:36:53.921Z,5.19
2019-02-25T00:37:54.056Z,5.09
2019-02-25T00:38:54.211Z,4.89
2019-02-25T00:39:54.323Z,4.86
2019-02-25T00:40:54.450Z,4.75
2019-02-25T00:41:54.581Z,4.60
2019-02-25T00:42:54.704Z,4.56
2019-02-25T00:43:54.827Z,4.57
2019-02-25T00:44:54.954Z,4.54
2019-02-25T00:45:55.091Z,4.63
2019-02-25T00:46:55.214Z,4.64
2019-02-25T00:47:55.348Z,4.61
2019-02-25T00:48:55.476Z,4.57
2019-02-25T00:49:55.602Z,4.60
2019-02-25T00:50:55.727Z,4.66
2019-02-25T00:51:55.857Z,4.69
2019-02-25T00:52:55.991Z,4.69
2019-02-25T00:53:56.115Z,4.69
2019-02-25T00:54:56.256Z,4.63
2019-02-25T00:55:56.370Z,4.75
2019-02-25T00:56:56.498Z,4.77
2019-02-25T00:57:56.615Z,4.72
2019-02-25T00:58:56.740Z,4.77
2019-02-25T00:59:56.861Z,4.72
2019-02-25T01:00:57.029Z,4.93
2019-02-25T01:01:57.130Z,4.86
2019-02-25T01:02:57.248Z,4.86
2019-02-25T01:03:57.377Z,4.78
2019-02-25T01:04:57.553Z,4.85
2019-02-25T01:05:57.671Z,4.82
2019-02-25T01:06:57.796Z,4.77
2019-02-25T01:07:57.925Z,4.77
2019-02-25T01:08:58.103Z,4.88
2019-02-25T01:09:58.216Z,4.78
2019-02-25T01:10:58.333Z,4.77
2019-02-25T01:11:58.514Z,4.79
2019-02-25T01:12:58.615Z,4.64
2019-02-25T01:13:58.744Z,4.48
2019-02-25T01:14:58.871Z,4.42
2019-02-25T01:15:59.022Z,4.38
2019-02-25T01:16:59.140Z,4.41
2019-02-25T01:18:00.023Z,4.48
2019-02-25T01:18:59.394Z,4.54
2019-02-25T01:19:59.547Z,4.61
2019-02-25T01:20:59.669Z,4.57
2019-02-25T01:21:59.789Z,4.59
2019-02-25T01:22:59.916Z,4.57
2019-02-25T01:24:00.070Z,4.59
2019-02-25T01:25:00.301Z,4.61
2019-02-25T01:26:00.308Z,4.60
2019-02-25T01:27:00.444Z,4.53
2019-02-25T01:28:00.599Z,4.60
2019-02-25T01:29:00.701Z,4.63
2019-02-25T01:30:00.825Z,4.67
2019-02-25T01:31:00.974Z,4.59
2019-02-25T01:32:01.118Z,4.69
2019-02-25T01:33:01.225Z,4.60
2019-02-25T01:34:01.358Z,4.59
2019-02-25T01:35:01.493Z,4.64
2019-02-25T01:36:01.604Z,4.63
2019-02-25T01:37:01.729Z,4.64
2019-02-25T01:38:01.871Z,4.61
2019-02-25T01:39:01.994Z,4.66
2019-02-25T01:40:02.145Z,4.67
2019-02-25T01:41:02.277Z,4.56
2019-02-25T01:42:02.407Z,4.60
2019-02-25T01:43:02.537Z,4.66
2019-02-25T01:44:02.654Z,4.72
2019-02-25T01:45:02.802Z,4.67
2019-02-25T01:46:02.930Z,4.69
2019-02-25T01:47:03.067Z,4.67
2019-02-25T01:48:03.182Z,4.74
2019-02-25T01:49:03.338Z,4.77
2019-02-25T01:50:03.459Z,4.61
2019-02-25T01:51:03.586Z,4.59
2019-02-25T01:52:03.707Z,4.63
2019-02-25T01:53:03.854Z,4.56
2019-02-25T01:54:03.977Z,4.56
2019-02-25T01:55:04.113Z,4.60
2019-02-25T01:56:04.223Z,4.56
2019-02-25T01:57:04.366Z,4.63
2019-02-25T01:58:04.479Z,4.57
2019-02-25T01:59:04.604Z,4.57
2019-02-25T02:00:04.729Z,4.57
2019-02-25T02:01:04.881Z,4.64
2019-02-25T02:02:04.998Z,4.71
2019-02-25T02:03:05.128Z,4.74
2019-02-25T02:04:05.250Z,4.66
2019-02-25T02:05:05.403Z,4.48
2019-02-25T02:06:05.529Z,4.28
2019-02-25T02:07:05.661Z,4.20
2019-02-25T02:08:05.782Z,4.12
2019-02-25T02:09:05.916Z,3.82
2019-02-25T02:10:06.038Z,3.54
2019-02-25T02:11:06.164Z,3.62
2019-02-25T02:12:06.285Z,3.63
2019-02-25T02:13:14.011Z,3.67
2019-02-25T02:14:06.542Z,3.72
2019-02-25T02:15:06.670Z,3.85
2019-02-25T02:16:06.794Z,3.82
2019-02-25T02:17:06.919Z,3.84
2019-02-25T02:18:07.052Z,3.90
2019-02-25T02:19:07.173Z,3.94
2019-02-25T02:20:07.303Z,4.06
2019-02-25T02:21:07.428Z,4.06
2019-02-25T02:22:07.550Z,4.10
2019-02-25T02:23:07.690Z,4.06
2019-02-25T02:24:07.829Z,4.10
2019-02-25T02:25:07.948Z,4.24
2019-02-25T02:26:08.071Z,4.09
2019-02-25T02:27:08.197Z,4.08
2019-02-25T02:28:08.336Z,4.16
2019-02-25T02:29:08.459Z,4.17
2019-02-25T02:30:08.592Z,4.23
2019-02-25T02:31:08.731Z,4.27
2019-02-25T02:32:08.907Z,4.26
2019-02-25T02:33:09.008Z,4.28
2019-02-25T02:34:09.106Z,4.27
2019-02-25T02:35:09.279Z,4.21
2019-02-25T02:36:11.565Z,4.26
2019-02-25T02:37:09.469Z,4.23
2019-02-25T02:38:09.586Z,4.26
2019-02-25T02:39:09.733Z,4.26
2019-02-25T02:40:09.886Z,4.24
2019-02-25T02:41:09.987Z,4.27
2019-02-25T02:42:10.121Z,4.34
2019-02-25T02:43:10.223Z,4.34
2019-02-25T02:44:10.321Z,4.31
2019-02-25T02:45:10.447Z,4.36
2019-02-25T02:46:10.571Z,4.34
2019-02-25T02:47:10.725Z,4.31
2019-02-25T02:48:10.851Z,4.24
2019-02-25T02:49:10.975Z,4.23
2019-02-25T02:50:11.169Z,4.24
2019-02-25T02:51:11.253Z,4.28
2019-02-25T02:52:11.383Z,4.18
2019-02-25T02:53:11.508Z,4.18
2019-02-25T02:54:11.664Z,4.20
2019-02-25T02:55:11.785Z,4.18
2019-02-25T02:56:11.910Z,4.24
2019-02-25T02:57:12.039Z,4.13
2019-02-25T02:58:12.163Z,4.13
2019-02-25T02:59:12.293Z,4.20
2019-02-25T03:00:12.415Z,4.21
2019-02-25T03:01:12.546Z,4.16
2019-02-25T03:02:12.661Z,4.06
2019-02-25T03:03:12.789Z,4.13
2019-02-25T03:04:12.946Z,4.26
2019-02-25T03:05:13.071Z,4.18
2019-02-25T03:06:13.195Z,4.23
2019-02-25T03:07:13.321Z,4.13
2019-02-25T03:08:13.479Z,4.23
2019-02-25T03:09:13.596Z,4.18
2019-02-25T03:10:13.716Z,4.13
2019-02-25T03:11:13.846Z,4.23
2019-02-25T03:12:13.955Z,4.20
2019-02-25T03:13:14.079Z,4.20
2019-02-25T03:14:14.206Z,4.06
2019-02-25T03:15:14.342Z,4.18
2019-02-25T03:16:14.479Z,4.10
2019-02-25T03:17:14.603Z,4.12
2019-02-25T03:18:14.733Z,4.08
2019-02-25T03:19:14.855Z,4.09
2019-02-25T03:20:14.988Z,4.06
2019-02-25T03:21:15.110Z,4.23
2019-02-25T03:22:15.233Z,4.08
2019-02-25T03:23:15.360Z,4.08
2019-02-25T03:24:15.500Z,4.02
2019-02-25T03:25:15.622Z,4.03
2019-02-25T03:26:15.745Z,4.06
2019-02-25T03:27:15.871Z,4.12
2019-02-25T03:28:16.024Z,4.09
2019-02-25T03:29:16.124Z,4.08
2019-02-25T03:30:16.263Z,4.09
2019-02-25T03:31:16.377Z,4.20
2019-02-25T03:32:16.522Z,4.05
2019-02-25T03:33:16.646Z,4.16
2019-02-25T03:34:16.775Z,4.08
2019-02-25T03:35:16.917Z,3.92
2019-02-25T03:36:17.056Z,4.02
2019-02-25T03:37:17.173Z,4.13
2019-02-25T03:38:17.304Z,4.12
2019-02-25T03:39:17.429Z,4.16
2019-02-25T03:40:17.570Z,4.12
2019-02-25T03:41:17.689Z,4.10
2019-02-25T03:42:17.822Z,4.05
2019-02-25T03:43:17.962Z,4.00
2019-02-25T03:44:18.079Z,4.09
2019-02-25T03:45:18.206Z,4.10
2019-02-25T03:46:18.331Z,4.08
2019-02-25T03:47:18.486Z,4.00
2019-02-25T03:48:18.597Z,3.92
2019-02-25T03:49:18.712Z,3.99
2019-02-25T03:50:18.847Z,3.96
2019-02-25T03:51:18.965Z,3.92
2019-02-25T03:52:19.095Z,3.92
2019-02-25T03:53:19.239Z,3.99
2019-02-25T03:54:19.367Z,3.80
2019-02-25T03:55:19.489Z,3.90
2019-02-25T03:56:19.649Z,3.85
2019-02-25T03:57:19.761Z,3.85
2019-02-25T03:58:19.884Z,3.85
2019-02-25T03:59:20.035Z,3.80
2019-02-25T04:00:20.167Z,3.82
2019-02-25T04:01:20.290Z,3.84
2019-02-25T04:02:20.408Z,3.80
2019-02-25T04:03:20.553Z,3.85
2019-02-25T04:04:20.675Z,3.72
2019-02-25T04:05:20.804Z,3.82
2019-02-25T04:06:20.927Z,3.73
2019-02-25T04:07:21.070Z,3.64
2019-02-25T04:08:21.194Z,3.67
2019-02-25T04:09:21.321Z,3.67
2019-02-25T04:10:21.449Z,3.67
2019-02-25T04:11:21.575Z,3.64
2019-02-25T04:12:21.718Z,3.70
2019-02-25T04:13:21.825Z,3.66
2019-02-25T04:14:21.950Z,3.70
2019-02-25T04:15:22.069Z,3.67
2019-02-25T04:16:22.212Z,3.63
2019-02-25T04:17:22.330Z,3.67
2019-02-25T04:18:22.461Z,3.63
2019-02-25T04:19:22.589Z,3.66
2019-02-25T04:20:22.748Z,3.64
2019-02-25T04:21:22.867Z,3.63
2019-02-25T04:22:22.992Z,3.69
2019-02-25T04:23:23.111Z,3.63
2019-02-25T04:24:23.250Z,3.54
2019-02-25T04:25:23.375Z,3.59
2019-02-25T04:26:23.503Z,3.60
2019-02-25T04:27:23.619Z,3.54
2019-02-25T04:28:23.783Z,3.51
2019-02-25T04:29:23.895Z,3.46
2019-02-25T04:30:24.025Z,3.27
2019-02-25T04:31:24.141Z,3.41
2019-02-25T04:32:24.291Z,3.42
2019-02-25T04:33:24.417Z,3.36
2019-02-25T04:34:24.541Z,3.20
2019-02-25T04:35:24.677Z,3.17
2019-02-25T04:36:24.825Z,2.91
2019-02-25T04:37:24.933Z,2.86
2019-02-25T04:38:25.061Z,2.73
2019-02-25T04:39:25.205Z,2.71
2019-02-25T04:40:25.324Z,2.73
2019-02-25T04:41:25.453Z,2.87
2019-02-25T04:42:25.569Z,2.82
2019-02-25T04:43:25.715Z,2.89
2019-02-25T04:44:25.854Z,2.94
2019-02-25T04:45:25.973Z,2.87
2019-02-25T04:46:26.097Z,2.99
2019-02-25T04:47:26.258Z,3.02
2019-02-25T04:48:26.373Z,2.99
2019-02-25T04:49:26.489Z,3.05
2019-02-25T04:50:26.621Z,3.04
2019-02-25T04:51:26.778Z,3.04
2019-02-25T04:52:26.909Z,3.12
2019-02-25T04:53:27.023Z,3.18
2019-02-25T04:54:27.160Z,3.15
2019-02-25T04:55:27.286Z,3.12
2019-02-25T04:56:27.407Z,3.22
2019-02-25T04:57:27.560Z,3.26
2019-02-25T04:58:27.681Z,3.23
2019-02-25T04:59:27.815Z,3.29
2019-02-25T05:00:27.956Z,3.26
2019-02-25T05:01:28.088Z,3.27
2019-02-25T05:02:28.214Z,3.27
2019-02-25T05:03:28.338Z,3.15
2019-02-25T05:04:28.480Z,3.26
2019-02-25T05:05:28.612Z,3.27
2019-02-25T05:06:28.729Z,3.20
2019-02-25T05:07:28.864Z,3.33
2019-02-25T05:08:28.978Z,3.33
2019-02-25T05:09:29.101Z,3.33
2019-02-25T05:10:29.227Z,3.33
2019-02-25T05:11:29.366Z,3.27
2019-02-25T05:12:29.479Z,3.37
2019-02-25T05:13:29.601Z,3.37
2019-02-25T05:14:29.726Z,3.33
2019-02-25T05:15:29.863Z,3.27
2019-02-25T05:16:29.979Z,3.36
2019-02-25T05:17:30.112Z,3.30
2019-02-25T05:18:30.236Z,3.37
2019-02-25T05:19:30.364Z,3.27
2019-02-25T05:20:30.490Z,3.29
2019-02-25T05:21:30.618Z,3.32
2019-02-25T05:22:30.731Z,3.37
2019-02-25T05:23:30.858Z,3.33
2019-02-25T05:24:30.983Z,3.36
2019-02-25T05:25:31.108Z,3.33
2019-02-25T05:26:31.231Z,3.29
2019-02-25T05:27:31.357Z,3.33
2019-02-25T05:28:31.486Z,3.36
2019-02-25T05:29:31.606Z,3.37
2019-02-25T05:30:31.734Z,3.35
2019-02-25T05:31:31.861Z,3.32
2019-02-25T05:32:31.984Z,3.36
2019-02-25T05:33:32.117Z,3.32
2019-02-25T05:34:32.236Z,3.26
2019-02-25T05:35:32.368Z,3.29
2019-02-25T05:36:32.486Z,3.35
2019-02-25T05:37:32.620Z,3.30
2019-02-25T05:38:32.737Z,3.32
2019-02-25T05:39:32.863Z,3.36
2019-02-25T05:40:32.985Z,3.25
2019-02-25T05:41:33.107Z,3.22
2019-02-25T05:42:33.243Z,3.14
2019-02-25T05:43:33.369Z,3.27
2019-02-25T05:44:33.492Z,3.27
2019-02-25T05:45:33.631Z,3.17
2019-02-25T05:46:33.749Z,3.15
2019-02-25T05:47:33.874Z,3.22
2019-02-25T05:48:34.001Z,3.14
2019-02-25T05:49:34.144Z,3.25
2019-02-25T05:50:34.246Z,3.17
2019-02-25T05:51:34.373Z,3.23
2019-02-25T05:52:34.503Z,3.20
2019-02-25T05:53:34.619Z,3.20
2019-02-25T05:54:34.743Z,3.14
2019-02-25T05:55:34.877Z,3.12
2019-02-25T05:56:34.992Z,3.17
2019-02-25T05:57:35.110Z,3.23
2019-02-25T05:58:35.235Z,3.17
2019-02-25T05:59:35.364Z,3.22
2019-02-25T06:00:35.491Z,3.12
2019-02-25T06:01:35.603Z,2.97
2019-02-25T06:02:35.746Z,2.63
2019-02-25T06:03:35.881Z,2.51
2019-02-25T06:04:36.003Z,2.51
2019-02-25T06:05:36.127Z,2.48
2019-02-25T06:06:36.243Z,2.55
2019-02-25T06:07:36.377Z,2.57
2019-02-25T06:08:36.496Z,2.66
2019-02-25T06:09:36.631Z,2.63
2019-02-25T06:10:36.755Z,2.69
2019-02-25T06:11:36.872Z,2.75
2019-02-25T06:12:37.016Z,2.86
2019-02-25T06:13:37.137Z,2.87
2019-02-25T06:14:37.266Z,2.94
2019-02-25T06:15:37.383Z,2.86
2019-02-25T06:16:37.536Z,3.02
2019-02-25T06:17:37.646Z,2.99
2019-02-25T06:18:37.769Z,3.05
2019-02-25T06:19:37.906Z,3.00
2019-02-25T06:20:38.023Z,3.08
2019-02-25T06:21:38.150Z,3.07
2019-02-25T06:22:38.268Z,3.11
2019-02-25T06:23:38.384Z,3.12
2019-02-25T06:24:38.503Z,3.07
2019-02-25T06:25:38.631Z,3.09
2019-02-25T06:26:38.843Z,3.14
2019-02-25T06:27:38.881Z,3.15
2019-02-25T06:28:39.006Z,3.17
2019-02-25T06:29:39.145Z,3.20
2019-02-25T06:30:39.250Z,3.23
2019-02-25T06:31:39.381Z,3.23
2019-02-25T06:32:39.506Z,3.14
2019-02-25T06:33:39.633Z,3.26
2019-02-25T06:34:39.759Z,3.23
2019-02-25T06:35:39.884Z,3.14
2019-02-25T06:36:40.005Z,3.25
2019-02-25T06:37:40.130Z,3.22
2019-02-25T06:38:40.257Z,3.18
2019-02-25T06:39:40.384Z,3.12
2019-02-25T06:40:40.507Z,3.15
2019-02-25T06:41:40.634Z,3.11
2019-02-25T06:42:40.758Z,3.17
2019-02-25T06:43:40.883Z,3.14
2019-02-25T06:44:41.003Z,3.18
2019-02-25T06:45:41.131Z,3.15
2019-02-25T06:46:41.254Z,3.17
2019-02-25T06:47:41.380Z,3.23
2019-02-25T06:48:41.511Z,3.22
2019-02-25T06:49:41.637Z,3.20
2019-02-25T06:50:41.759Z,3.23
2019-02-25T06:51:41.882Z,3.14
2019-02-25T06:52:42.012Z,3.23
2019-02-25T06:53:42.130Z,3.20
2019-02-25T06:54:42.261Z,3.20
2019-02-25T06:55:42.380Z,3.20
2019-02-25T06:56:42.514Z,3.18
2019-02-25T06:57:42.628Z,3.20
2019-02-25T06:58:42.761Z,3.20
2019-02-25T06:59:42.884Z,3.22
2019-02-25T07:00:43.008Z,3.12
2019-02-25T07:01:43.138Z,3.26
2019-02-25T07:02:43.261Z,3.18
2019-02-25T07:03:43.701Z,3.12
2019-02-25T07:04:43.510Z,3.14
2019-02-25T07:05:43.637Z,3.22
2019-02-25T07:06:43.767Z,3.23
2019-02-25T07:07:43.891Z,3.17
2019-02-25T07:08:44.015Z,3.20
2019-02-25T07:09:44.132Z,3.25
2019-02-25T07:10:44.257Z,3.22
2019-02-25T07:11:44.378Z,3.17
2019-02-25T07:12:44.507Z,3.20
2019-02-25T07:13:44.619Z,3.27
2019-02-25T07:14:44.764Z,3.33
2019-02-25T07:15:44.899Z,3.33
2019-02-25T07:16:45.024Z,3.35
2019-02-25T07:17:45.150Z,3.41
2019-02-25T07:18:45.265Z,3.37
2019-02-25T07:19:45.424Z,3.42
2019-02-25T07:20:45.557Z,3.33
2019-02-25T07:21:45.674Z,3.23
2019-02-25T07:22:45.788Z,3.14
2019-02-25T07:23:45.949Z,3.17
2019-02-25T07:24:52.639Z,3.14
2019-02-25T07:25:46.194Z,3.15
2019-02-25T07:26:46.338Z,3.12
2019-02-25T07:27:46.458Z,2.93
2019-02-25T07:28:46.584Z,2.89
2019-02-25T07:29:46.705Z,2.72
2019-02-25T07:30:47.016Z,2.76
2019-02-25T07:31:47.011Z,2.63
2019-02-25T07:32:47.137Z,2.47
2019-02-25T07:33:47.266Z,2.53
2019-02-25T07:34:47.395Z,2.29
2019-02-25T07:35:47.521Z,2.48
2019-02-25T07:36:47.650Z,2.32
2019-02-25T07:37:47.768Z,2.35
2019-02-25T07:38:47.908Z,2.29
2019-02-25T07:39:48.042Z,2.36
2019-02-25T07:40:48.157Z,2.35
2019-02-25T07:41:48.319Z,2.33
2019-02-25T07:42:48.431Z,2.30
2019-02-25T07:43:48.560Z,2.30
2019-02-25T07:44:48.691Z,2.29
2019-02-25T07:45:48.830Z,2.35
2019-02-25T07:46:48.955Z,2.40
2019-02-25T07:47:49.078Z,2.33
2019-02-25T07:48:49.231Z,2.37
2019-02-25T07:49:49.351Z,2.39
2019-02-25T07:50:49.476Z,2.33
2019-02-25T07:51:49.604Z,2.50
2019-02-25T07:52:49.753Z,2.48
2019-02-25T07:53:49.874Z,2.47
2019-02-25T07:54:50.003Z,2.57
2019-02-25T07:55:50.129Z,2.53
2019-02-25T07:56:50.300Z,2.57
2019-02-25T07:57:50.431Z,2.68
2019-02-25T07:58:50.541Z,2.71
2019-02-25T07:59:50.677Z,2.75
2019-02-25T08:00:50.813Z,2.84
2019-02-25T08:01:50.939Z,3.07
2019-02-25T08:02:51.072Z,3.25
2019-02-25T08:03:51.241Z,3.27
2019-02-25T08:04:51.335Z,3.23
2019-02-25T08:05:51.462Z,3.35
2019-02-25T08:06:51.589Z,3.41
2019-02-25T08:07:51.718Z,3.45
2019-02-25T08:08:51.861Z,3.55
2019-02-25T08:09:51.997Z,3.69
2019-02-25T08:10:52.126Z,3.81
2019-02-25T08:11:52.249Z,3.82
2019-02-25T08:12:52.379Z,3.82
2019-02-25T08:13:52.513Z,3.82
2019-02-25T08:14:52.653Z,3.74
2019-02-25T08:15:52.815Z,3.81
2019-02-25T08:16:52.946Z,3.85
2019-02-25T08:17:53.066Z,3.94
2019-02-25T08:18:53.217Z,3.87
2019-02-25T08:19:53.337Z,3.90
2019-02-25T08:20:53.465Z,3.99
2019-02-25T08:21:53.600Z,3.99
2019-02-25T08:22:53.742Z,4.10
2019-02-25T08:23:53.871Z,4.20
2019-02-25T08:24:53.993Z,4.35
2019-02-25T08:25:54.114Z,4.39
2019-02-25T08:26:54.296Z,4.46
2019-02-25T08:27:54.419Z,4.60
2019-02-25T08:28:54.544Z,4.57
2019-02-25T08:29:54.670Z,4.60
2019-02-25T08:30:54.835Z,4.71
2019-02-25T08:31:54.959Z,4.64
2019-02-25T08:32:55.084Z,4.72
2019-02-25T08:33:55.577Z,4.78
2019-02-25T08:34:55.373Z,4.77
2019-02-25T08:35:55.511Z,4.93
2019-02-25T08:37:02.144Z,5.00
2019-02-25T08:37:55.763Z,4.94
2019-02-25T08:38:55.902Z,4.97
2019-02-25T08:39:56.036Z,5.03
2019-02-25T08:40:56.159Z,4.94
2019-02-25T08:41:56.304Z,5.06
2019-02-25T08:42:56.428Z,5.16
2019-02-25T08:43:56.554Z,5.25
2019-02-25T08:44:56.706Z,5.15
2019-02-25T08:45:56.831Z,5.33
2019-02-25T08:46:56.951Z,5.39
2019-02-25T08:47:57.076Z,5.41
2019-02-25T08:48:57.221Z,5.48
2019-02-25T08:49:57.348Z,5.44
2019-02-25T08:50:57.471Z,5.48
2019-02-25T08:51:57.609Z,5.57
2019-02-25T08:52:57.742Z,5.65
2019-02-25T08:53:57.857Z,5.52
2019-02-25T08:54:57.992Z,5.66
2019-02-25T08:55:58.402Z,5.55
2019-02-25T08:56:58.278Z,5.61
2019-02-25T08:57:58.425Z,5.72
2019-02-25T08:58:58.549Z,5.75
2019-02-25T08:59:58.680Z,5.87
2019-02-25T09:00:58.847Z,5.95
2019-02-25T09:01:58.972Z,6.03
2019-02-25T09:02:59.092Z,5.95
2019-02-25T09:03:59.217Z,6.03
2019-02-25T09:04:59.370Z,6.02
2019-02-25T09:05:59.485Z,6.16
2019-02-25T09:06:59.611Z,6.08
2019-02-25T09:07:59.743Z,6.13
2019-02-25T09:08:59.874Z,6.24
2019-02-25T09:09:59.995Z,6.35
2019-02-25T09:11:00.128Z,6.40
2019-02-25T09:12:00.281Z,6.45
2019-02-25T09:13:00.405Z,6.57
2019-02-25T09:14:00.535Z,6.67
2019-02-25T09:15:00.646Z,6.71
2019-02-25T09:16:00.811Z,6.67
2019-02-25T09:17:00.937Z,6.75
2019-02-25T09:18:01.043Z,6.83
2019-02-25T09:19:01.169Z,6.92
2019-02-25T09:20:01.313Z,6.83
2019-02-25T09:21:01.432Z,6.97
2019-02-25T09:22:01.566Z,6.97
2019-02-25T09:23:01.688Z,7.10
2019-02-25T09:24:01.839Z,7.13
2019-02-25T09:25:01.955Z,7.21
2019-02-25T09:26:02.082Z,7.28
2019-02-25T09:27:02.210Z,7.28
2019-02-25T09:28:02.368Z,7.21
2019-02-25T09:29:02.475Z,7.24
2019-02-25T09:30:02.605Z,7.29
2019-02-25T09:31:02.752Z,7.43
2019-02-25T09:32:02.904Z,7.46
2019-02-25T09:33:03.037Z,7.52
2019-02-25T09:34:03.161Z,7.68
2019-02-25T09:35:03.278Z,7.77
2019-02-25T09:36:03.410Z,7.88
2019-02-25T09:37:03.539Z,7.91
2019-02-25T09:38:03.686Z,7.96
2019-02-25T09:39:03.811Z,8.02
2019-02-25T09:40:03.949Z,8.13
2019-02-25T09:41:04.088Z,8.12
2019-02-25T09:42:04.217Z,8.26
2019-02-25T09:43:04.333Z,8.24
2019-02-25T09:44:04.461Z,8.41
2019-02-25T09:45:04.589Z,8.39
2019-02-25T09:46:04.718Z,8.55
2019-02-25T09:47:05.234Z,8.60
2019-02-25T09:48:04.979Z,8.65
2019-02-25T09:49:05.107Z,8.78
2019-02-25T09:50:05.235Z,8.74
2019-02-25T09:51:05.357Z,8.74
2019-02-25T09:52:05.491Z,8.74
2019-02-25T09:53:07.237Z,8.71
2019-02-25T09:54:05.733Z,8.93
2019-02-25T09:55:05.858Z,8.99
2019-02-25T09:56:05.979Z,9.09
2019-02-25T09:57:06.112Z,9.04
2019-02-25T09:58:06.238Z,9.19
2019-02-25T09:59:06.372Z,9.16
2019-02-25T10:00:06.498Z,9.24
2019-02-25T10:01:06.630Z,9.30
2019-02-25T10:02:06.755Z,9.32
2019-02-25T10:03:06.885Z,9.36
2019-02-25T10:04:08.743Z,9.45
2019-02-25T10:05:07.144Z,9.54
2019-02-25T10:06:07.282Z,9.55
2019-02-25T10:07:07.409Z,9.75
2019-02-25T10:08:07.540Z,9.83
2019-02-25T10:09:15.976Z,9.87
2019-02-25T10:10:07.864Z,10.02
2019-02-25T10:11:08.004Z,10.12
2019-02-25T10:12:08.121Z,10.14
2019-02-25T10:13:08.257Z,10.21
2019-02-25T10:14:08.386Z,10.18
2019-02-25T10:15:08.512Z,10.26
2019-02-25T10:16:08.651Z,10.30
2019-02-25T10:17:08.781Z,10.36
2019-02-25T10:18:08.912Z,10.38
2019-02-25T10:19:09.046Z,10.42
2019-02-25T10:20:09.171Z,10.55
2019-02-25T10:21:09.305Z,10.67
2019-02-25T10:22:09.430Z,10.61
2019-02-25T10:23:09.556Z,10.70
2019-02-25T10:24:09.683Z,10.76
2019-02-25T10:25:09.818Z,10.93
2019-02-25T10:26:09.959Z,11.00
2019-02-25T10:27:10.087Z,11.18
2019-02-25T10:28:10.216Z,11.19
2019-02-25T10:29:10.353Z,11.22
2019-02-25T10:30:10.485Z,11.27
2019-02-25T10:31:11.473Z,11.52
2019-02-25T10:32:10.747Z,11.49
2019-02-25T10:33:10.879Z,11.59
2019-02-25T10:34:11.008Z,11.56
2019-02-25T10:35:11.145Z,11.67
2019-02-25T10:36:11.281Z,11.74
2019-02-25T10:37:13.034Z,11.70
2019-02-25T10:38:11.566Z,11.91
2019-02-25T10:39:13.092Z,12.03
2019-02-25T10:40:13.236Z,12.08
2019-02-25T10:41:11.989Z,12.21
2019-02-25T10:42:12.133Z,12.33
2019-02-25T10:43:12.278Z,12.44
2019-02-25T10:44:12.427Z,12.63
2019-02-25T10:45:13.482Z,12.76
2019-02-25T10:46:13.877Z,12.98
2019-02-25T10:47:13.610Z,13.02
2019-02-25T10:48:12.970Z,13.19
2019-02-25T10:49:13.129Z,13.29
2019-02-25T10:50:13.261Z,13.36
2019-02-25T10:51:13.742Z,13.64
2019-02-25T10:52:15.151Z,13.64
2019-02-25T10:53:15.547Z,13.85
2019-02-25T10:54:14.724Z,14.05
2019-02-25T10:55:13.933Z,14.31
2019-02-25T10:56:16.220Z,14.51
2019-02-25T10:57:14.224Z,14.79
2019-02-25T10:58:14.367Z,15.07
2019-02-25T10:59:14.504Z,15.14
2019-02-25T11:00:14.647Z,15.23
2019-02-25T11:01:17.606Z,15.41
2019-02-25T11:02:15.403Z,15.51
2019-02-25T11:03:15.389Z,15.99
2019-02-25T11:04:17.385Z,16.18
2019-02-25T11:05:15.410Z,16.34
2019-02-25T11:06:15.539Z,16.69
2019-02-25T11:07:15.674Z,17.02
2019-02-25T11:08:15.822Z,17.28
2019-02-25T11:09:18.012Z,17.38
2019-02-25T11:10:18.056Z,17.59
2019-02-25T11:11:24.893Z,17.90
2019-02-25T11:12:21.576Z,18.01
2019-02-25T11:13:16.464Z,18.24
2019-02-25T11:14:16.598Z,18.34
2019-02-25T11:15:16.756Z,18.24
2019-02-25T11:16:18.695Z,18.23
2019-02-25T11:17:18.318Z,18.21
2019-02-25T11:18:19.524Z,18.30
2019-02-25T11:19:17.343Z,18.17
2019-02-25T11:20:17.475Z,18.15
2019-02-25T11:21:17.612Z,18.23
2019-02-25T11:22:17.761Z,18.38
2019-02-25T11:23:19.421Z,18.51
2019-02-25T11:24:19.147Z,18.48
2019-02-25T11:25:19.385Z,18.56
2019-02-25T11:26:18.353Z,18.78
2019-02-25T11:27:18.526Z,18.96
2019-02-25T11:28:25.517Z,19.23
2019-02-25T11:29:18.796Z,19.26
2019-02-25T11:30:20.763Z,19.23
2019-02-25T11:31:22.798Z,19.16
2019-02-25T11:32:19.874Z,19.35
2019-02-25T11:33:19.389Z,19.44
2019-02-25T11:34:19.538Z,19.47
2019-02-25T11:35:19.674Z,19.39
2019-02-25T11:36:21.925Z,19.56
2019-02-25T11:37:22.487Z,19.64
2019-02-25T11:38:20.123Z,19.75
2019-02-25T11:39:20.265Z,19.90
2019-02-25T11:40:20.413Z,20.23
2019-02-25T11:41:20.563Z,20.52
2019-02-25T11:42:20.743Z,20.95
2019-02-25T11:43:21.656Z,21.30
2019-02-25T11:44:21.179Z,21.62
2019-02-25T11:45:21.136Z,21.81
2019-02-25T11:46:21.301Z,21.93
2019-02-25T11:47:21.441Z,22.00
2019-02-25T11:48:22.697Z,22.28
2019-02-25T11:49:21.727Z,22.58
2019-02-25T11:50:21.905Z,22.81
2019-02-25T11:51:22.047Z,23.06
2019-02-25T11:52:22.191Z,23.33
2019-02-25T11:53:22.372Z,23.64
2019-02-25T11:54:22.519Z,23.98
2019-02-25T11:55:22.651Z,24.21
2019-02-25T11:56:22.801Z,24.33
2019-02-25T11:57:22.992Z,24.62
2019-02-25T11:58:23.127Z,24.56
2019-02-25T11:59:23.286Z,24.71
2019-02-25T12:00:23.443Z,24.86
2019-02-25T12:01:23.603Z,24.81
2019-02-25T12:02:25.975Z,25.08
2019-02-25T12:03:23.852Z,25.11
2019-02-25T12:04:23.995Z,25.31
2019-02-25T12:05:24.158Z,25.63
2019-02-25T12:06:24.313Z,25.67
2019-02-25T12:07:24.442Z,25.92
2019-02-25T12:08:24.665Z,25.90
2019-02-25T12:09:24.700Z,25.74
2019-02-25T12:10:24.835Z,25.85
2019-02-25T12:11:24.978Z,26.15
2019-02-25T12:14:40.281Z,26.48
2019-02-25T12:15:40.432Z,26.33
2019-02-25T12:16:40.565Z,26.56
2019-02-25T12:17:40.704Z,26.68
2019-02-25T12:18:42.858Z,26.71
2019-02-25T12:19:41.038Z,26.82
2019-02-25T12:20:41.319Z,27.08
2019-02-25T12:21:42.381Z,27.40
2019-02-25T12:22:41.576Z,27.61
2019-02-25T12:23:41.676Z,27.75
2019-02-25T12:24:41.982Z,28.03
2019-02-25T12:25:42.026Z,28.15
2019-02-25T12:26:42.131Z,28.13
2019-02-25T12:27:42.225Z,28.32
2019-02-25T12:28:42.373Z,28.17
2019-02-25T12:29:42.511Z,27.85
2019-02-25T12:30:42.546Z,27.68
2019-02-25T12:31:42.643Z,27.76
2019-02-25T12:32:42.856Z,27.88
2019-02-25T12:33:42.898Z,27.82
2019-02-25T12:34:43.119Z,27.57
2019-02-25T12:35:43.215Z,26.86
2019-02-25T12:36:43.347Z,26.63
2019-02-25T12:37:43.434Z,26.76
2019-02-25T12:38:43.485Z,26.71
2019-02-25T12:39:43.712Z,26.95
2019-02-25T12:40:43.770Z,27.26
2019-02-25T12:41:43.980Z,27.37
2019-02-25T12:42:44.290Z,27.50
2019-02-25T12:43:44.398Z,27.70
2019-02-25T12:44:44.584Z,27.98
2019-02-25T12:45:44.788Z,28.30
2019-02-25T12:46:44.923Z,28.52
2019-02-25T12:47:45.061Z,28.80
2019-02-25T12:48:45.361Z,29.25
2019-02-25T12:51:17.247Z,29.81
2019-02-25T12:52:17.399Z,29.89
2019-02-25T12:53:17.540Z,29.49
2019-02-25T12:54:17.738Z,29.25
2019-02-25T12:55:17.877Z,28.94
2019-02-25T12:56:18.036Z,28.86
2019-02-25T12:57:18.174Z,28.77
2019-02-25T12:58:18.354Z,29.03
2019-02-25T12:59:18.512Z,29.29
2019-02-25T13:00:18.631Z,29.59
2019-02-25T13:01:18.804Z,29.98
2019-02-25T13:02:18.969Z,30.36
2019-02-25T13:03:19.110Z,30.53
2019-02-25T13:04:19.271Z,30.56
2019-02-25T13:05:19.436Z,30.80
2019-02-25T13:06:19.587Z,31.11
2019-02-25T13:07:19.755Z,31.38
2019-02-25T13:08:19.911Z,31.32
2019-02-25T13:09:20.073Z,31.34
2019-02-25T13:10:20.221Z,31.08
2019-02-25T13:11:20.401Z,31.07
2019-02-25T13:12:20.544Z,30.83
2019-02-25T13:13:20.702Z,30.71
2019-02-25T13:14:20.857Z,30.37
2019-02-25T13:15:21.034Z,31.07
2019-02-25T13:16:21.199Z,31.24
2019-02-25T13:17:21.362Z,31.63
2019-02-25T13:18:21.517Z,31.87